sensor_id;sensor_type;location;lat;lon;timestamp;temperature;humidity
75088;HTU21D;63664;44.868;40.600;2023-04-24T00:00:17;9.42;87.56
75088;HTU21D;63664;44.868;40.600;2023-04-24T00:02:44;9.40;87.64
75088;HTU21D;63664;44.868;40.600;2023-04-24T00:05:14;9.39;87.56
75088;HTU21D;63664;44.868;40.600;2023-04-24T00:07:41;9.36;87.36
75088;HTU21D;63664;44.868;40.600;2023-04-24T00:10:08;9.32;87.51
75088;HTU21D;63664;44.868;40.600;2023-04-24T00:12:35;9.33;87.64
75088;HTU21D;63664;44.868;40.600;2023-04-24T00:15:02;9.34;87.69
75088;HTU21D;63664;44.868;40.600;2023-04-24T00:17:33;9.32;87.72
75088;HTU21D;63664;44.868;40.600;2023-04-24T00:20:03;9.30;87.78
75088;HTU21D;63664;44.868;40.600;2023-04-24T00:22:31;9.29;87.86
75088;HTU21D;63664;44.868;40.600;2023-04-24T00:25:00;9.30;87.91
75088;HTU21D;63664;44.868;40.600;2023-04-24T00:27:26;9.30;87.93
75088;HTU21D;63664;44.868;40.600;2023-04-24T00:29:55;9.32;88.00
75088;HTU21D;63664;44.868;40.600;2023-04-24T00:32:27;9.36;87.95
75088;HTU21D;63664;44.868;40.600;2023-04-24T00:34:55;9.36;88.00
75088;HTU21D;63664;44.868;40.600;2023-04-24T00:37:22;9.39;88.08
75088;HTU21D;63664;44.868;40.600;2023-04-24T00:39:53;9.41;88.09
75088;HTU21D;63664;44.868;40.600;2023-04-24T00:42:22;9.45;88.15
75088;HTU21D;63664;44.868;40.600;2023-04-24T00:44:49;9.45;88.19
75088;HTU21D;63664;44.868;40.600;2023-04-24T00:47:15;9.47;88.25
75088;HTU21D;63664;44.868;40.600;2023-04-24T00:49:42;9.48;88.25
75088;HTU21D;63664;44.868;40.600;2023-04-24T00:52:08;9.48;88.35
75088;HTU21D;63664;44.868;40.600;2023-04-24T00:54:40;9.49;88.44
75088;HTU21D;63664;44.868;40.600;2023-04-24T00:57:06;9.51;88.48
75088;HTU21D;63664;44.868;40.600;2023-04-24T00:59:33;9.53;88.49
75088;HTU21D;63664;44.868;40.600;2023-04-24T01:02:08;9.57;88.51
75088;HTU21D;63664;44.868;40.600;2023-04-24T01:04:35;9.60;88.53
75088;HTU21D;63664;44.868;40.600;2023-04-24T01:07:02;9.62;88.53
75088;HTU21D;63664;44.868;40.600;2023-04-24T01:09:31;9.64;88.57
75088;HTU21D;63664;44.868;40.600;2023-04-24T01:12:03;9.65;88.61
75088;HTU21D;63664;44.868;40.600;2023-04-24T01:14:32;9.69;88.67
75088;HTU21D;63664;44.868;40.600;2023-04-24T01:16:59;9.69;88.73
75088;HTU21D;63664;44.868;40.600;2023-04-24T01:19:27;9.71;88.80
75088;HTU21D;63664;44.868;40.600;2023-04-24T01:21:54;9.72;88.85
75088;HTU21D;63664;44.868;40.600;2023-04-24T01:24:29;9.75;88.89
75088;HTU21D;63664;44.868;40.600;2023-04-24T01:26:57;9.76;88.90
75088;HTU21D;63664;44.868;40.600;2023-04-24T01:29:23;9.75;88.96
75088;HTU21D;63664;44.868;40.600;2023-04-24T01:31:55;9.76;89.06
75088;HTU21D;63664;44.868;40.600;2023-04-24T01:34:21;9.77;89.12
75088;HTU21D;63664;44.868;40.600;2023-04-24T01:36:48;9.78;89.20
75088;HTU21D;63664;44.868;40.600;2023-04-24T01:39:14;9.79;89.25
75088;HTU21D;63664;44.868;40.600;2023-04-24T01:41:46;9.79;89.28
75088;HTU21D;63664;44.868;40.600;2023-04-24T01:44:12;9.80;89.34
75088;HTU21D;63664;44.868;40.600;2023-04-24T01:46:39;9.79;89.40
75088;HTU21D;63664;44.868;40.600;2023-04-24T01:49:05;9.82;89.44
75088;HTU21D;63664;44.868;40.600;2023-04-24T01:51:34;9.82;89.48
75088;HTU21D;63664;44.868;40.600;2023-04-24T01:54:05;9.82;89.53
75088;HTU21D;63664;44.868;40.600;2023-04-24T01:56:35;9.84;89.64
75088;HTU21D;63664;44.868;40.600;2023-04-24T01:59:03;9.84;89.64
75088;HTU21D;63664;44.868;40.600;2023-04-24T02:01:38;9.85;89.72
75088;HTU21D;63664;44.868;40.600;2023-04-24T02:04:08;9.88;89.75
75088;HTU21D;63664;44.868;40.600;2023-04-24T02:06:35;9.86;89.79
75088;HTU21D;63664;44.868;40.600;2023-04-24T02:09:02;9.89;89.83
75088;HTU21D;63664;44.868;40.600;2023-04-24T02:11:31;9.90;89.86
75088;HTU21D;63664;44.868;40.600;2023-04-24T02:13:57;9.93;89.86
75088;HTU21D;63664;44.868;40.600;2023-04-24T02:16:24;9.93;89.91
75088;HTU21D;63664;44.868;40.600;2023-04-24T02:18:50;9.93;89.97
75088;HTU21D;63664;44.868;40.600;2023-04-24T02:21:16;9.94;90.05
75088;HTU21D;63664;44.868;40.600;2023-04-24T02:23:45;9.94;90.08
75088;HTU21D;63664;44.868;40.600;2023-04-24T02:26:12;9.95;90.14
75088;HTU21D;63664;44.868;40.600;2023-04-24T02:28:40;9.95;90.14
75088;HTU21D;63664;44.868;40.600;2023-04-24T02:31:10;9.95;90.21
75088;HTU21D;63664;44.868;40.600;2023-04-24T02:33:40;9.94;90.12
75088;HTU21D;63664;44.868;40.600;2023-04-24T02:36:09;9.93;89.93
75088;HTU21D;63664;44.868;40.600;2023-04-24T02:38:38;9.92;90.12
75088;HTU21D;63664;44.868;40.600;2023-04-24T02:41:05;9.93;90.21
75088;HTU21D;63664;44.868;40.600;2023-04-24T02:43:34;9.93;90.30
75088;HTU21D;63664;44.868;40.600;2023-04-24T02:46:01;9.94;90.39
75088;HTU21D;63664;44.868;40.600;2023-04-24T02:48:28;9.96;90.42
75088;HTU21D;63664;44.868;40.600;2023-04-24T02:50:54;9.98;90.45
75088;HTU21D;63664;44.868;40.600;2023-04-24T02:53:23;10.03;90.47
75088;HTU21D;63664;44.868;40.600;2023-04-24T02:55:50;10.05;90.48
75088;HTU21D;63664;44.868;40.600;2023-04-24T02:58:18;10.06;90.51
75088;HTU21D;63664;44.868;40.600;2023-04-24T03:00:46;10.10;90.55
75088;HTU21D;63664;44.868;40.600;2023-04-24T03:03:15;10.12;90.59
75088;HTU21D;63664;44.868;40.600;2023-04-24T03:05:46;10.14;90.60
75088;HTU21D;63664;44.868;40.600;2023-04-24T03:08:15;10.15;90.63
75088;HTU21D;63664;44.868;40.600;2023-04-24T03:10:44;10.19;90.72
75088;HTU21D;63664;44.868;40.600;2023-04-24T03:13:10;10.20;90.69
75088;HTU21D;63664;44.868;40.600;2023-04-24T03:15:37;10.24;90.74
75088;HTU21D;63664;44.868;40.600;2023-04-24T03:18:04;10.26;90.75
75088;HTU21D;63664;44.868;40.600;2023-04-24T03:20:33;10.29;90.77
75088;HTU21D;63664;44.868;40.600;2023-04-24T03:23:02;10.34;90.76
75088;HTU21D;63664;44.868;40.600;2023-04-24T03:25:29;10.38;90.59
75088;HTU21D;63664;44.868;40.600;2023-04-24T03:27:58;10.42;90.33
75088;HTU21D;63664;44.868;40.600;2023-04-24T03:30:35;10.45;90.47
75088;HTU21D;63664;44.868;40.600;2023-04-24T03:33:05;10.48;90.50
75088;HTU21D;63664;44.868;40.600;2023-04-24T03:35:36;10.53;90.56
75088;HTU21D;63664;44.868;40.600;2023-04-24T03:38:07;10.58;90.57
75088;HTU21D;63664;44.868;40.600;2023-04-24T03:40:42;10.65;90.60
75088;HTU21D;63664;44.868;40.600;2023-04-24T03:43:37;10.75;90.46
75088;HTU21D;63664;44.868;40.600;2023-04-24T03:46:07;10.80;90.41
75088;HTU21D;63664;44.868;40.600;2023-04-24T03:48:39;10.85;90.44
75088;HTU21D;63664;44.868;40.600;2023-04-24T03:51:08;10.92;90.41
75088;HTU21D;63664;44.868;40.600;2023-04-24T03:53:36;10.98;90.44
75088;HTU21D;63664;44.868;40.600;2023-04-24T03:56:05;11.03;90.44
75088;HTU21D;63664;44.868;40.600;2023-04-24T03:58:35;11.08;90.42
75088;HTU21D;63664;44.868;40.600;2023-04-24T04:01:04;11.13;90.44
75088;HTU21D;63664;44.868;40.600;2023-04-24T04:03:47;11.17;90.38
75088;HTU21D;63664;44.868;40.600;2023-04-24T04:06:19;11.18;90.44
75088;HTU21D;63664;44.868;40.600;2023-04-24T04:08:46;11.18;90.50
75088;HTU21D;63664;44.868;40.600;2023-04-24T04:11:13;11.20;90.63
75088;HTU21D;63664;44.868;40.600;2023-04-24T04:13:39;11.23;90.63
75088;HTU21D;63664;44.868;40.600;2023-04-24T04:16:09;11.24;90.66
75088;HTU21D;63664;44.868;40.600;2023-04-24T04:18:39;11.26;90.74
75088;HTU21D;63664;44.868;40.600;2023-04-24T04:21:07;11.29;90.71
75088;HTU21D;63664;44.868;40.600;2023-04-24T04:23:34;11.32;90.70
75088;HTU21D;63664;44.868;40.600;2023-04-24T04:26:25;11.36;90.63
75088;HTU21D;63664;44.868;40.600;2023-04-24T04:29:11;11.38;90.67
75088;HTU21D;63664;44.868;40.600;2023-04-24T04:31:43;11.40;90.69
75088;HTU21D;63664;44.868;40.600;2023-04-24T04:34:15;11.41;90.77
75088;HTU21D;63664;44.868;40.600;2023-04-24T04:36:42;11.45;90.77
75088;HTU21D;63664;44.868;40.600;2023-04-24T04:39:27;11.52;90.71
75088;HTU21D;63664;44.868;40.600;2023-04-24T04:42:01;11.55;90.66
75088;HTU21D;63664;44.868;40.600;2023-04-24T04:44:42;11.60;90.69
75088;HTU21D;63664;44.868;40.600;2023-04-24T04:47:20;11.66;90.60
75088;HTU21D;63664;44.868;40.600;2023-04-24T04:49:50;11.71;90.58
75088;HTU21D;63664;44.868;40.600;2023-04-24T04:52:27;11.77;90.55
75088;HTU21D;63664;44.868;40.600;2023-04-24T06:47:04;14.40;87.99
75088;HTU21D;63664;44.868;40.600;2023-04-24T06:49:33;14.51;87.93
75088;HTU21D;63664;44.868;40.600;2023-04-24T06:51:59;14.60;87.77
75088;HTU21D;63664;44.868;40.600;2023-04-24T06:54:26;14.74;87.62
75088;HTU21D;63664;44.868;40.600;2023-04-24T06:56:56;14.85;87.44
75088;HTU21D;63664;44.868;40.600;2023-04-24T06:59:24;14.94;87.34
75088;HTU21D;63664;44.868;40.600;2023-04-24T07:01:53;14.99;87.24
75088;HTU21D;63664;44.868;40.600;2023-04-24T07:04:22;15.03;87.24
75088;HTU21D;63664;44.868;40.600;2023-04-24T07:06:51;15.07;87.22
75088;HTU21D;63664;44.868;40.600;2023-04-24T07:09:23;15.09;87.25
75088;HTU21D;63664;44.868;40.600;2023-04-24T07:11:52;15.11;87.23
75088;HTU21D;63664;44.868;40.600;2023-04-24T07:14:19;15.13;87.22
75088;HTU21D;63664;44.868;40.600;2023-04-24T07:16:49;15.16;87.19
75088;HTU21D;63664;44.868;40.600;2023-04-24T07:19:15;15.17;87.15
75088;HTU21D;63664;44.868;40.600;2023-04-24T07:21:46;15.22;87.13
75088;HTU21D;63664;44.868;40.600;2023-04-24T07:24:12;15.28;87.00
75088;HTU21D;63664;44.868;40.600;2023-04-24T07:26:43;15.31;86.90
75088;HTU21D;63664;44.868;40.600;2023-04-24T07:29:10;15.34;86.83
75088;HTU21D;63664;44.868;40.600;2023-04-24T07:31:38;15.37;86.83
75088;HTU21D;63664;44.868;40.600;2023-04-24T07:34:09;15.38;86.79
75088;HTU21D;63664;44.868;40.600;2023-04-24T07:36:39;15.36;86.81
75088;HTU21D;63664;44.868;40.600;2023-04-24T07:39:09;15.32;86.88
75088;HTU21D;63664;44.868;40.600;2023-04-24T07:41:40;15.28;87.03
75088;HTU21D;63664;44.868;40.600;2023-04-24T07:44:09;15.26;87.08
75088;HTU21D;63664;44.868;40.600;2023-04-24T07:46:38;15.28;87.08
75088;HTU21D;63664;44.868;40.600;2023-04-24T07:49:07;15.30;87.00
75088;HTU21D;63664;44.868;40.600;2023-04-24T07:51:33;15.30;87.01
75088;HTU21D;63664;44.868;40.600;2023-04-24T07:54:09;15.31;86.99
75088;HTU21D;63664;44.868;40.600;2023-04-24T07:56:36;15.31;86.95
75088;HTU21D;63664;44.868;40.600;2023-04-24T07:59:05;15.29;86.98
75088;HTU21D;63664;44.868;40.600;2023-04-24T08:01:34;15.27;87.00
75088;HTU21D;63664;44.868;40.600;2023-04-24T08:04:10;15.30;86.93
75088;HTU21D;63664;44.868;40.600;2023-04-24T08:06:36;15.34;86.81
75088;HTU21D;63664;44.868;40.600;2023-04-24T08:09:05;15.39;86.68
75088;HTU21D;63664;44.868;40.600;2023-04-24T08:11:31;15.43;86.59
75088;HTU21D;63664;44.868;40.600;2023-04-24T08:14:01;15.49;86.47
75088;HTU21D;63664;44.868;40.600;2023-04-24T08:16:27;15.51;86.35
75088;HTU21D;63664;44.868;40.600;2023-04-24T08:18:59;15.52;86.29
75088;HTU21D;63664;44.868;40.600;2023-04-24T08:21:28;15.51;86.29
75088;HTU21D;63664;44.868;40.600;2023-04-24T08:23:54;15.49;86.31
75088;HTU21D;63664;44.868;40.600;2023-04-24T08:26:22;15.48;86.35
75088;HTU21D;63664;44.868;40.600;2023-04-24T08:28:49;15.51;86.29
75088;HTU21D;63664;44.868;40.600;2023-04-24T08:31:19;15.56;86.21
75088;HTU21D;63664;44.868;40.600;2023-04-24T08:33:48;15.61;86.08
75088;HTU21D;63664;44.868;40.600;2023-04-24T08:36:14;15.70;85.93
75088;HTU21D;63664;44.868;40.600;2023-04-24T08:38:42;15.80;85.77
75088;HTU21D;63664;44.868;40.600;2023-04-24T08:41:09;15.87;85.63
75088;HTU21D;63664;44.868;40.600;2023-04-24T08:43:38;15.98;85.48
75088;HTU21D;63664;44.868;40.600;2023-04-24T08:46:07;16.06;85.28
75088;HTU21D;63664;44.868;40.600;2023-04-24T08:48:35;16.12;85.13
75088;HTU21D;63664;44.868;40.600;2023-04-24T08:51:02;16.16;85.09
75088;HTU21D;63664;44.868;40.600;2023-04-24T08:53:36;16.18;85.06
75088;HTU21D;63664;44.868;40.600;2023-04-24T08:56:03;16.21;84.93
75088;HTU21D;63664;44.868;40.600;2023-04-24T08:58:33;16.24;84.91
75088;HTU21D;63664;44.868;40.600;2023-04-24T09:00:59;16.28;84.87
75088;HTU21D;63664;44.868;40.600;2023-04-24T09:03:29;16.30;84.79
75088;HTU21D;63664;44.868;40.600;2023-04-24T09:05:57;16.33;84.71
75088;HTU21D;63664;44.868;40.600;2023-04-24T09:08:25;16.30;84.77
75088;HTU21D;63664;44.868;40.600;2023-04-24T09:10:51;16.29;84.82
75088;HTU21D;63664;44.868;40.600;2023-04-24T09:13:21;16.29;84.90
75088;HTU21D;63664;44.868;40.600;2023-04-24T09:15:48;16.33;84.81
75088;HTU21D;63664;44.868;40.600;2023-04-24T09:18:15;16.37;84.68
75088;HTU21D;63664;44.868;40.600;2023-04-24T09:21:10;16.42;84.60
75088;HTU21D;63664;44.868;40.600;2023-04-24T09:23:36;16.46;84.45
75088;HTU21D;63664;44.868;40.600;2023-04-24T09:26:03;16.51;84.29
75088;HTU21D;63664;44.868;40.600;2023-04-24T09:28:35;16.55;84.19
75088;HTU21D;63664;44.868;40.600;2023-04-24T09:31:11;16.56;84.16
75088;HTU21D;63664;44.868;40.600;2023-04-24T09:33:40;16.64;83.91
75088;HTU21D;63664;44.868;40.600;2023-04-24T09:36:19;16.72;83.68
75088;HTU21D;63664;44.868;40.600;2023-04-24T09:38:58;16.77;83.55
75088;HTU21D;63664;44.868;40.600;2023-04-24T09:41:31;16.77;83.49
75088;HTU21D;63664;44.868;40.600;2023-04-24T09:44:14;16.77;83.49
75088;HTU21D;63664;44.868;40.600;2023-04-24T09:46:48;16.92;83.33
75088;HTU21D;63664;44.868;40.600;2023-04-24T09:49:21;17.03;83.00
75088;HTU21D;63664;44.868;40.600;2023-04-24T09:51:50;17.13;82.84
75088;HTU21D;63664;44.868;40.600;2023-04-24T09:54:21;17.29;82.60
75088;HTU21D;63664;44.868;40.600;2023-04-24T09:56:50;17.47;82.10
75088;HTU21D;63664;44.868;40.600;2023-04-24T09:59:19;17.62;81.75
75088;HTU21D;63664;44.868;40.600;2023-04-24T10:01:46;17.70;81.50
75088;HTU21D;63664;44.868;40.600;2023-04-24T10:04:26;17.69;81.43
75088;HTU21D;63664;44.868;40.600;2023-04-24T10:06:56;17.67;81.57
75088;HTU21D;63664;44.868;40.600;2023-04-24T10:09:25;17.77;81.39
75088;HTU21D;63664;44.868;40.600;2023-04-24T10:11:52;17.87;81.20
75088;HTU21D;63664;44.868;40.600;2023-04-24T10:14:24;17.98;80.81
75088;HTU21D;63664;44.868;40.600;2023-04-24T10:16:56;18.04;80.58
75088;HTU21D;63664;44.868;40.600;2023-04-24T10:19:26;18.09;80.62
75088;HTU21D;63664;44.868;40.600;2023-04-24T10:21:55;18.11;80.46
75088;HTU21D;63664;44.868;40.600;2023-04-24T10:24:25;18.13;80.43
75088;HTU21D;63664;44.868;40.600;2023-04-24T10:26:57;18.13;80.35
75088;HTU21D;63664;44.868;40.600;2023-04-24T10:29:24;18.14;80.39
75088;HTU21D;63664;44.868;40.600;2023-04-24T10:31:51;18.09;80.37
75088;HTU21D;63664;44.868;40.600;2023-04-24T10:34:26;18.08;80.32
75088;HTU21D;63664;44.868;40.600;2023-04-24T10:36:55;18.00;80.41
75088;HTU21D;63664;44.868;40.600;2023-04-24T10:39:22;18.00;80.60
75088;HTU21D;63664;44.868;40.600;2023-04-24T10:41:51;17.98;80.50
75088;HTU21D;63664;44.868;40.600;2023-04-24T10:44:20;18.02;80.43
75088;HTU21D;63664;44.868;40.600;2023-04-24T10:46:57;18.08;80.24
75088;HTU21D;63664;44.868;40.600;2023-04-24T10:49:34;18.10;80.09
75088;HTU21D;63664;44.868;40.600;2023-04-24T10:52:02;18.14;79.88
75088;HTU21D;63664;44.868;40.600;2023-04-24T11:02:39;18.41;79.27
75088;HTU21D;63664;44.868;40.600;2023-04-24T11:05:09;18.42;79.14
75088;HTU21D;63664;44.868;40.600;2023-04-24T11:08:14;18.36;79.28
75088;HTU21D;63664;44.868;40.600;2023-04-24T11:11:14;18.35;79.27
75088;HTU21D;63664;44.868;40.600;2023-04-24T11:19:10;18.12;79.59
75088;HTU21D;63664;44.868;40.600;2023-04-24T11:22:13;18.02;79.92
75088;HTU21D;63664;44.868;40.600;2023-04-24T11:24:50;17.83;80.45
75088;HTU21D;63664;44.868;40.600;2023-04-24T11:27:30;17.72;80.79
75088;HTU21D;63664;44.868;40.600;2023-04-24T11:32:29;17.56;81.33
75088;HTU21D;63664;44.868;40.600;2023-04-24T11:35:00;17.52;81.53
75088;HTU21D;63664;44.868;40.600;2023-04-24T11:37:41;17.56;81.57
75088;HTU21D;63664;44.868;40.600;2023-04-24T11:40:14;17.64;81.48
75088;HTU21D;63664;44.868;40.600;2023-04-24T11:42:48;17.75;81.36
75088;HTU21D;63664;44.868;40.600;2023-04-24T11:45:17;17.75;81.31
75088;HTU21D;63664;44.868;40.600;2023-04-24T11:47:46;17.68;81.37
75088;HTU21D;63664;44.868;40.600;2023-04-24T11:50:14;17.58;81.67
75088;HTU21D;63664;44.868;40.600;2023-04-24T11:52:45;17.43;82.04
75088;HTU21D;63664;44.868;40.600;2023-04-24T11:57:46;17.23;82.53
75088;HTU21D;63664;44.868;40.600;2023-04-24T12:00:16;17.19;82.72
75088;HTU21D;63664;44.868;40.600;2023-04-24T12:02:44;17.17;82.71
75088;HTU21D;63664;44.868;40.600;2023-04-24T12:05:42;17.09;82.87
75088;HTU21D;63664;44.868;40.600;2023-04-24T12:08:10;17.01;82.94
75088;HTU21D;63664;44.868;40.600;2023-04-24T12:10:36;16.91;83.15
75088;HTU21D;63664;44.868;40.600;2023-04-24T12:13:05;16.86;83.26
75088;HTU21D;63664;44.868;40.600;2023-04-24T12:15:42;16.85;83.36
75088;HTU21D;63664;44.868;40.600;2023-04-24T12:18:12;16.86;83.36
75088;HTU21D;63664;44.868;40.600;2023-04-24T12:20:40;16.84;83.35
75088;HTU21D;63664;44.868;40.600;2023-04-24T12:23:06;16.84;83.35
75088;HTU21D;63664;44.868;40.600;2023-04-24T12:25:33;16.77;83.44
75088;HTU21D;63664;44.868;40.600;2023-04-24T12:30:33;16.65;83.81
75088;HTU21D;63664;44.868;40.600;2023-04-24T12:33:00;16.59;83.90
75088;HTU21D;63664;44.868;40.600;2023-04-24T12:35:31;16.47;84.16
75088;HTU21D;63664;44.868;40.600;2023-04-24T12:38:15;16.34;84.49
75088;HTU21D;63664;44.868;40.600;2023-04-24T13:03:56;15.63;86.29
75088;HTU21D;63664;44.868;40.600;2023-04-24T13:06:22;15.60;86.56
75088;HTU21D;63664;44.868;40.600;2023-04-24T13:08:48;15.52;86.83
75088;HTU21D;63664;44.868;40.600;2023-04-24T13:11:17;15.44;87.18
75088;HTU21D;63664;44.868;40.600;2023-04-24T13:13:43;15.41;87.47
75088;HTU21D;63664;44.868;40.600;2023-04-24T13:16:10;15.36;87.65
75088;HTU21D;63664;44.868;40.600;2023-04-24T13:18:36;15.34;87.89
75088;HTU21D;63664;44.868;40.600;2023-04-24T13:21:05;15.33;88.09
75088;HTU21D;63664;44.868;40.600;2023-04-24T13:23:33;15.33;88.15
75088;HTU21D;63664;44.868;40.600;2023-04-24T13:26:03;15.32;88.37
75088;HTU21D;63664;44.868;40.600;2023-04-24T13:28:33;15.31;88.51
75088;HTU21D;63664;44.868;40.600;2023-04-24T13:31:02;15.30;88.66
75088;HTU21D;63664;44.868;40.600;2023-04-24T13:33:28;15.28;88.76
75088;HTU21D;63664;44.868;40.600;2023-04-24T13:35:55;15.24;88.93
75088;HTU21D;63664;44.868;40.600;2023-04-24T13:38:21;15.16;89.15
75088;HTU21D;63664;44.868;40.600;2023-04-24T13:40:55;15.10;89.41
75088;HTU21D;63664;44.868;40.600;2023-04-24T13:43:22;15.03;89.57
75088;HTU21D;63664;44.868;40.600;2023-04-24T13:45:48;15.01;89.79
75088;HTU21D;63664;44.868;40.600;2023-04-24T13:48:17;14.99;89.88
75088;HTU21D;63664;44.868;40.600;2023-04-24T13:50:46;14.96;89.98
75088;HTU21D;63664;44.868;40.600;2023-04-24T13:53:20;14.97;90.10
75088;HTU21D;63664;44.868;40.600;2023-04-24T14:46:27;14.48;91.71
75088;HTU21D;63664;44.868;40.600;2023-04-24T14:49:01;14.45;91.93
75088;HTU21D;63664;44.868;40.600;2023-04-24T14:51:30;14.44;91.94
75088;HTU21D;63664;44.868;40.600;2023-04-24T14:53:59;14.42;92.13
75088;HTU21D;63664;44.868;40.600;2023-04-24T14:56:29;14.41;92.21
75088;HTU21D;63664;44.868;40.600;2023-04-24T14:58:55;14.38;92.30
75088;HTU21D;63664;44.868;40.600;2023-04-24T15:01:23;14.34;92.49
75088;HTU21D;63664;44.868;40.600;2023-04-24T15:03:50;14.30;92.63
75088;HTU21D;63664;44.868;40.600;2023-04-24T15:06:17;14.27;92.70
75088;HTU21D;63664;44.868;40.600;2023-04-24T15:08:43;14.22;92.84
75088;HTU21D;63664;44.868;40.600;2023-04-24T15:11:15;14.20;93.04
75088;HTU21D;63664;44.868;40.600;2023-04-24T15:13:41;14.15;93.13
75088;HTU21D;63664;44.868;40.600;2023-04-24T15:16:10;14.13;93.27
75088;HTU21D;63664;44.868;40.600;2023-04-24T15:18:37;14.11;93.30
75088;HTU21D;63664;44.868;40.600;2023-04-24T15:21:03;14.08;93.33
75088;HTU21D;63664;44.868;40.600;2023-04-24T15:23:32;14.06;93.46
75088;HTU21D;63664;44.868;40.600;2023-04-24T15:25:58;14.03;93.49
75088;HTU21D;63664;44.868;40.600;2023-04-24T15:28:25;14.01;93.56
75088;HTU21D;63664;44.868;40.600;2023-04-24T15:30:54;13.99;93.64
75088;HTU21D;63664;44.868;40.600;2023-04-24T15:33:21;13.95;93.66
75088;HTU21D;63664;44.868;40.600;2023-04-24T15:35:47;13.92;93.76
75088;HTU21D;63664;44.868;40.600;2023-04-24T15:46:14;13.79;93.93
75088;HTU21D;63664;44.868;40.600;2023-04-24T15:48:42;13.75;94.11
75088;HTU21D;63664;44.868;40.600;2023-04-24T15:51:08;13.71;94.21
75088;HTU21D;63664;44.868;40.600;2023-04-24T15:53:34;13.68;94.29
75088;HTU21D;63664;44.868;40.600;2023-04-24T15:56:00;13.66;94.33
75088;HTU21D;63664;44.868;40.600;2023-04-24T15:58:29;13.61;94.46
75088;HTU21D;63664;44.868;40.600;2023-04-24T16:00:56;13.58;94.50
75088;HTU21D;63664;44.868;40.600;2023-04-24T16:03:27;13.51;94.62
75088;HTU21D;63664;44.868;40.600;2023-04-24T16:05:53;13.46;94.73
75088;HTU21D;63664;44.868;40.600;2023-04-24T16:08:19;13.41;94.84
75088;HTU21D;63664;44.868;40.600;2023-04-24T16:10:47;13.38;94.87
75088;HTU21D;63664;44.868;40.600;2023-04-24T16:13:15;13.38;94.87
75088;HTU21D;63664;44.868;40.600;2023-04-24T16:15:46;13.36;94.86
75088;HTU21D;63664;44.868;40.600;2023-04-24T16:18:15;13.34;94.91
75088;HTU21D;63664;44.868;40.600;2023-04-24T16:20:42;13.31;94.99
75088;HTU21D;63664;44.868;40.600;2023-04-24T16:23:08;13.27;95.06
75088;HTU21D;63664;44.868;40.600;2023-04-24T16:25:35;13.25;95.14
75088;HTU21D;63664;44.868;40.600;2023-04-24T16:28:01;13.21;95.23
75088;HTU21D;63664;44.868;40.600;2023-04-24T16:30:30;13.19;95.35
75088;HTU21D;63664;44.868;40.600;2023-04-24T16:33:04;13.16;95.45
75088;HTU21D;63664;44.868;40.600;2023-04-24T16:35:32;13.14;95.39
75088;HTU21D;63664;44.868;40.600;2023-04-24T16:38:01;13.10;95.58
75088;HTU21D;63664;44.868;40.600;2023-04-24T16:40:28;13.09;95.59
75088;HTU21D;63664;44.868;40.600;2023-04-24T16:42:54;13.07;95.58
75088;HTU21D;63664;44.868;40.600;2023-04-24T16:45:25;13.06;95.65
75088;HTU21D;63664;44.868;40.600;2023-04-24T16:47:54;13.04;95.76
75088;HTU21D;63664;44.868;40.600;2023-04-24T16:50:20;13.02;95.81
75088;HTU21D;63664;44.868;40.600;2023-04-24T16:52:49;13.01;95.88
75088;HTU21D;63664;44.868;40.600;2023-04-24T16:55:15;12.99;95.92
75088;HTU21D;63664;44.868;40.600;2023-04-24T16:57:42;12.97;96.02
75088;HTU21D;63664;44.868;40.600;2023-04-24T17:00:08;12.96;96.02
75088;HTU21D;63664;44.868;40.600;2023-04-24T17:02:35;12.94;96.10
75088;HTU21D;63664;44.868;40.600;2023-04-24T17:05:04;12.92;96.17
75088;HTU21D;63664;44.868;40.600;2023-04-24T17:07:36;12.89;96.26
75088;HTU21D;63664;44.868;40.600;2023-04-24T17:10:05;12.87;96.36
75088;HTU21D;63664;44.868;40.600;2023-04-24T17:12:37;12.86;96.36
75088;HTU21D;63664;44.868;40.600;2023-04-24T17:15:06;12.85;96.39
75088;HTU21D;63664;44.868;40.600;2023-04-24T17:17:34;12.82;96.44
75088;HTU21D;63664;44.868;40.600;2023-04-24T17:20:04;12.78;96.54
75088;HTU21D;63664;44.868;40.600;2023-04-24T17:22:30;12.76;96.61
75088;HTU21D;63664;44.868;40.600;2023-04-24T17:24:56;12.74;96.67
75088;HTU21D;63664;44.868;40.600;2023-04-24T17:27:25;12.70;96.77
75088;HTU21D;63664;44.868;40.600;2023-04-24T17:29:51;12.67;96.87
75088;HTU21D;63664;44.868;40.600;2023-04-24T17:32:17;12.71;96.85
75088;HTU21D;63664;44.868;40.600;2023-04-24T17:34:50;12.69;96.82
75088;HTU21D;63664;44.868;40.600;2023-04-24T17:37:16;12.65;96.94
75088;HTU21D;63664;44.868;40.600;2023-04-24T17:39:47;12.61;97.08
75088;HTU21D;63664;44.868;40.600;2023-04-24T17:42:13;12.61;97.13
75088;HTU21D;63664;44.868;40.600;2023-04-24T17:44:39;12.58;97.17
75088;HTU21D;63664;44.868;40.600;2023-04-24T17:47:08;12.57;97.29
75088;HTU21D;63664;44.868;40.600;2023-04-24T17:49:35;12.57;97.32
75088;HTU21D;63664;44.868;40.600;2023-04-24T17:52:07;12.57;97.34
75088;HTU21D;63664;44.868;40.600;2023-04-24T17:54:36;12.57;97.36
75088;HTU21D;63664;44.868;40.600;2023-04-24T17:57:05;12.57;97.39
75088;HTU21D;63664;44.868;40.600;2023-04-24T17:59:34;12.57;97.42
75088;HTU21D;63664;44.868;40.600;2023-04-24T18:02:02;12.53;97.43
75088;HTU21D;63664;44.868;40.600;2023-04-24T18:04:33;12.51;97.59
75088;HTU21D;63664;44.868;40.600;2023-04-24T18:06:59;12.50;97.67
75088;HTU21D;63664;44.868;40.600;2023-04-24T18:09:26;12.53;97.69
75088;HTU21D;63664;44.868;40.600;2023-04-24T18:11:54;12.52;97.75
75088;HTU21D;63664;44.868;40.600;2023-04-24T18:14:26;12.50;97.76
75088;HTU21D;63664;44.868;40.600;2023-04-24T18:16:55;12.50;97.79
75088;HTU21D;63664;44.868;40.600;2023-04-24T18:19:26;12.49;97.81
75088;HTU21D;63664;44.868;40.600;2023-04-24T18:21:52;12.48;97.91
75088;HTU21D;63664;44.868;40.600;2023-04-24T18:24:18;12.47;97.93
75088;HTU21D;63664;44.868;40.600;2023-04-24T18:26:47;12.49;97.98
75088;HTU21D;63664;44.868;40.600;2023-04-24T18:29:18;12.48;98.06
75088;HTU21D;63664;44.868;40.600;2023-04-24T18:31:50;12.49;98.03
75088;HTU21D;63664;44.868;40.600;2023-04-24T18:34:16;12.45;98.10
75088;HTU21D;63664;44.868;40.600;2023-04-24T18:36:45;12.46;98.18
75088;HTU21D;63664;44.868;40.600;2023-04-24T18:39:11;12.45;98.19
75088;HTU21D;63664;44.868;40.600;2023-04-24T18:41:40;12.44;98.25
75088;HTU21D;63664;44.868;40.600;2023-04-24T18:44:10;12.44;98.26
75088;HTU21D;63664;44.868;40.600;2023-04-24T18:46:36;12.44;98.29
75088;HTU21D;63664;44.868;40.600;2023-04-24T18:49:06;12.43;98.35
75088;HTU21D;63664;44.868;40.600;2023-04-24T18:51:37;12.43;98.39
75088;HTU21D;63664;44.868;40.600;2023-04-24T18:54:03;12.44;98.41